sensor_id;sensor_type;location;lat;lon;timestamp;P1;durP1;ratioP1;P2;durP2;ratioP2
39308;SDS011;26019;47.510;19.122;2023-12-14T00:08:52;7.32;;;5.15;;
39308;SDS011;26019;47.510;19.122;2023-12-14T00:18:54;7.90;;;5.40;;
39308;SDS011;26019;47.510;19.122;2023-12-14T00:28:57;8.88;;;6.20;;
39308;SDS011;26019;47.510;19.122;2023-12-14T00:39:02;8.88;;;5.93;;
39308;SDS011;26019;47.510;19.122;2023-12-14T00:49:05;10.47;;;6.23;;
39308;SDS011;26019;47.510;19.122;2023-12-14T00:59:07;10.00;;;6.88;;
39308;SDS011;26019;47.510;19.122;2023-12-14T01:09:10;8.95;;;6.18;;
39308;SDS011;26019;47.510;19.122;2023-12-14T01:19:15;9.23;;;6.10;;
39308;SDS011;26019;47.510;19.122;2023-12-14T01:29:17;10.02;;;6.60;;
39308;SDS011;26019;47.510;19.122;2023-12-14T01:39:18;10.13;;;7.10;;
39308;SDS011;26019;47.510;19.122;2023-12-14T01:49:21;14.98;;;8.35;;
39308;SDS011;26019;47.510;19.122;2023-12-14T01:59:23;12.13;;;7.53;;
39308;SDS011;26019;47.510;19.122;2023-12-14T02:09:27;16.02;;;9.02;;
39308;SDS011;26019;47.510;19.122;2023-12-14T02:19:28;16.42;;;9.02;;
39308;SDS011;26019;47.510;19.122;2023-12-14T02:29:34;19.63;;;10.27;;
39308;SDS011;26019;47.510;19.122;2023-12-14T02:39:36;21.15;;;11.43;;
39308;SDS011;26019;47.510;19.122;2023-12-14T02:49:38;19.45;;;10.75;;
39308;SDS011;26019;47.510;19.122;2023-12-14T02:59:40;19.02;;;10.35;;
39308;SDS011;26019;47.510;19.122;2023-12-14T03:09:43;16.27;;;9.87;;
39308;SDS011;26019;47.510;19.122;2023-12-14T03:19:52;19.85;;;11.52;;
39308;SDS011;26019;47.510;19.122;2023-12-14T03:29:54;24.08;;;10.77;;
39308;SDS011;26019;47.510;19.122;2023-12-14T03:39:56;21.27;;;10.50;;
39308;SDS011;26019;47.510;19.122;2023-12-14T03:49:59;22.10;;;10.35;;
39308;SDS011;26019;47.510;19.122;2023-12-14T04:00:01;23.23;;;11.67;;
39308;SDS011;26019;47.510;19.122;2023-12-14T04:10:09;21.00;;;10.93;;
39308;SDS011;26019;47.510;19.122;2023-12-14T04:20:14;22.30;;;11.45;;
39308;SDS011;26019;47.510;19.122;2023-12-14T04:30:17;20.65;;;11.40;;
39308;SDS011;26019;47.510;19.122;2023-12-14T04:40:19;22.63;;;12.10;;
39308;SDS011;26019;47.510;19.122;2023-12-14T04:50:21;19.60;;;10.90;;
39308;SDS011;26019;47.510;19.122;2023-12-14T05:00:23;21.58;;;10.95;;
39308;SDS011;26019;47.510;19.122;2023-12-14T05:10:25;28.17;;;14.25;;
39308;SDS011;26019;47.510;19.122;2023-12-14T05:20:26;27.58;;;13.82;;
39308;SDS011;26019;47.510;19.122;2023-12-14T05:40:36;27.25;;;14.00;;
39308;SDS011;26019;47.510;19.122;2023-12-14T05:50:39;27.70;;;14.07;;
39308;SDS011;26019;47.510;19.122;2023-12-14T06:00:41;24.55;;;13.57;;
39308;SDS011;26019;47.510;19.122;2023-12-14T06:10:45;29.75;;;15.07;;
39308;SDS011;26019;47.510;19.122;2023-12-14T06:20:49;26.83;;;14.63;;
39308;SDS011;26019;47.510;19.122;2023-12-14T06:30:52;27.30;;;15.13;;
39308;SDS011;26019;47.510;19.122;2023-12-14T06:40:56;28.67;;;15.07;;
39308;SDS011;26019;47.510;19.122;2023-12-14T06:50:59;32.53;;;16.88;;
39308;SDS011;26019;47.510;19.122;2023-12-14T07:01:03;29.95;;;15.63;;
39308;SDS011;26019;47.510;19.122;2023-12-14T07:11:08;27.95;;;14.85;;
39308;SDS011;26019;47.510;19.122;2023-12-14T07:21:13;28.65;;;15.45;;
39308;SDS011;26019;47.510;19.122;2023-12-14T07:31:14;27.17;;;15.70;;
39308;SDS011;26019;47.510;19.122;2023-12-14T07:41:16;25.88;;;14.82;;
39308;SDS011;26019;47.510;19.122;2023-12-14T07:51:18;26.67;;;14.35;;
39308;SDS011;26019;47.510;19.122;2023-12-14T08:01:20;26.73;;;14.70;;
39308;SDS011;26019;47.510;19.122;2023-12-14T08:11:22;24.63;;;14.65;;
39308;SDS011;26019;47.510;19.122;2023-12-14T08:21:25;27.98;;;15.57;;
39308;SDS011;26019;47.510;19.122;2023-12-14T08:31:27;26.17;;;14.90;;
39308;SDS011;26019;47.510;19.122;2023-12-14T08:41:29;24.42;;;14.15;;
39308;SDS011;26019;47.510;19.122;2023-12-14T08:51:30;26.20;;;15.00;;
39308;SDS011;26019;47.510;19.122;2023-12-14T09:01:32;25.42;;;14.52;;
39308;SDS011;26019;47.510;19.122;2023-12-14T09:11:37;24.50;;;13.93;;
39308;SDS011;26019;47.510;19.122;2023-12-14T09:21:39;24.88;;;14.07;;
39308;SDS011;26019;47.510;19.122;2023-12-14T09:31:47;26.58;;;14.48;;
39308;SDS011;26019;47.510;19.122;2023-12-14T09:42:05;21.33;;;12.77;;
39308;SDS011;26019;47.510;19.122;2023-12-14T09:52:09;25.35;;;13.80;;
39308;SDS011;26019;47.510;19.122;2023-12-14T10:02:11;20.33;;;13.83;;
39308;SDS011;26019;47.510;19.122;2023-12-14T10:12:15;20.67;;;13.02;;
39308;SDS011;26019;47.510;19.122;2023-12-14T10:22:17;20.00;;;12.60;;
39308;SDS011;26019;47.510;19.122;2023-12-14T10:32:19;17.63;;;11.60;;
39308;SDS011;26019;47.510;19.122;2023-12-14T10:42:22;20.08;;;11.93;;
39308;SDS011;26019;47.510;19.122;2023-12-14T10:52:40;16.40;;;10.40;;
39308;SDS011;26019;47.510;19.122;2023-12-14T11:02:45;18.17;;;10.93;;
39308;SDS011;26019;47.510;19.122;2023-12-14T11:12:52;17.85;;;11.10;;
39308;SDS011;26019;47.510;19.122;2023-12-14T11:23:07;20.00;;;11.68;;
39308;SDS011;26019;47.510;19.122;2023-12-14T11:33:14;20.65;;;11.45;;
39308;SDS011;26019;47.510;19.122;2023-12-14T11:43:18;19.80;;;13.07;;
39308;SDS011;26019;47.510;19.122;2023-12-14T11:53:23;17.48;;;11.13;;
39308;SDS011;26019;47.510;19.122;2023-12-14T12:03:31;17.08;;;11.95;;
39308;SDS011;26019;47.510;19.122;2023-12-14T12:13:35;20.10;;;12.40;;
39308;SDS011;26019;47.510;19.122;2023-12-14T12:23:36;21.52;;;11.43;;
39308;SDS011;26019;47.510;19.122;2023-12-14T12:33:38;14.82;;;10.18;;
39308;SDS011;26019;47.510;19.122;2023-12-14T12:43:40;16.27;;;10.35;;
39308;SDS011;26019;47.510;19.122;2023-12-14T12:53:42;17.90;;;10.50;;
39308;SDS011;26019;47.510;19.122;2023-12-14T13:03:46;17.73;;;11.05;;
39308;SDS011;26019;47.510;19.122;2023-12-14T13:13:48;17.90;;;9.83;;
39308;SDS011;26019;47.510;19.122;2023-12-14T13:23:50;14.73;;;8.95;;
39308;SDS011;26019;47.510;19.122;2023-12-14T13:33:53;20.73;;;10.10;;
39308;SDS011;26019;47.510;19.122;2023-12-14T13:53:57;17.42;;;10.23;;
39308;SDS011;26019;47.510;19.122;2023-12-14T14:03:59;15.02;;;9.45;;
39308;SDS011;26019;47.510;19.122;2023-12-14T14:14:02;16.37;;;9.90;;
39308;SDS011;26019;47.510;19.122;2023-12-14T14:24:05;16.75;;;9.18;;
39308;SDS011;26019;47.510;19.122;2023-12-14T14:34:08;16.60;;;10.80;;
39308;SDS011;26019;47.510;19.122;2023-12-14T14:44:10;16.03;;;10.03;;
39308;SDS011;26019;47.510;19.122;2023-12-14T14:54:14;15.93;;;9.05;;
39308;SDS011;26019;47.510;19.122;2023-12-14T15:04:15;15.95;;;10.43;;
39308;SDS011;26019;47.510;19.122;2023-12-14T15:14:17;20.35;;;10.63;;
39308;SDS011;26019;47.510;19.122;2023-12-14T15:24:20;15.97;;;9.50;;
39308;SDS011;26019;47.510;19.122;2023-12-14T15:34:25;16.67;;;9.35;;
39308;SDS011;26019;47.510;19.122;2023-12-14T15:44:26;14.98;;;9.07;;
39308;SDS011;26019;47.510;19.122;2023-12-14T15:54:33;15.82;;;10.02;;
39308;SDS011;26019;47.510;19.122;2023-12-14T16:04:34;17.83;;;11.20;;
39308;SDS011;26019;47.510;19.122;2023-12-14T16:14:36;20.40;;;12.18;;
39308;SDS011;26019;47.510;19.122;2023-12-14T16:24:40;25.23;;;12.57;;
39308;SDS011;26019;47.510;19.122;2023-12-14T16:34:42;22.85;;;13.85;;
39308;SDS011;26019;47.510;19.122;2023-12-14T16:44:47;21.10;;;13.32;;
39308;SDS011;26019;47.510;19.122;2023-12-14T16:54:55;20.92;;;13.70;;
39308;SDS011;26019;47.510;19.122;2023-12-14T17:04:59;20.00;;;12.55;;
39308;SDS011;26019;47.510;19.122;2023-12-14T17:15:04;27.23;;;13.45;;
39308;SDS011;26019;47.510;19.122;2023-12-14T17:25:10;22.75;;;13.20;;
39308;SDS011;26019;47.510;19.122;2023-12-14T17:35:12;22.92;;;13.43;;
39308;SDS011;26019;47.510;19.122;2023-12-14T17:45:16;20.90;;;12.13;;
39308;SDS011;26019;47.510;19.122;2023-12-14T17:55:19;18.92;;;11.40;;
39308;SDS011;26019;47.510;19.122;2023-12-14T18:05:21;19.73;;;12.33;;
39308;SDS011;26019;47.510;19.122;2023-12-14T18:15:24;19.58;;;12.23;;
39308;SDS011;26019;47.510;19.122;2023-12-14T18:25:25;21.45;;;12.80;;
39308;SDS011;26019;47.510;19.122;2023-12-14T18:35:27;23.13;;;13.40;;
39308;SDS011;26019;47.510;19.122;2023-12-14T18:45:31;23.50;;;13.57;;
39308;SDS011;26019;47.510;19.122;2023-12-14T18:55:37;19.90;;;12.65;;
39308;SDS011;26019;47.510;19.122;2023-12-14T19:05:40;22.83;;;13.80;;
39308;SDS011;26019;47.510;19.122;2023-12-14T19:15:44;22.65;;;13.40;;
39308;SDS011;26019;47.510;19.122;2023-12-14T19:25:46;21.48;;;14.45;;
39308;SDS011;26019;47.510;19.122;2023-12-14T19:35:49;23.20;;;12.80;;
39308;SDS011;26019;47.510;19.122;2023-12-14T19:45:53;23.42;;;13.93;;
39308;SDS011;26019;47.510;19.122;2023-12-14T19:55:57;20.75;;;13.68;;
39308;SDS011;26019;47.510;19.122;2023-12-14T20:06:00;23.03;;;13.57;;
39308;SDS011;26019;47.510;19.122;2023-12-14T20:16:09;26.43;;;15.10;;
39308;SDS011;26019;47.510;19.122;2023-12-14T20:26:21;24.63;;;14.15;;
39308;SDS011;26019;47.510;19.122;2023-12-14T20:36:31;22.00;;;13.25;;
39308;SDS011;26019;47.510;19.122;2023-12-14T20:46:35;24.65;;;15.50;;
39308;SDS011;26019;47.510;19.122;2023-12-14T20:56:38;26.57;;;14.80;;
39308;SDS011;26019;47.510;19.122;2023-12-14T21:06:42;27.52;;;14.82;;
39308;SDS011;26019;47.510;19.122;2023-12-14T21:16:44;28.15;;;16.05;;
39308;SDS011;26019;47.510;19.122;2023-12-14T21:26:52;25.38;;;14.50;;
39308;SDS011;26019;47.510;19.122;2023-12-14T21:37:13;28.67;;;14.55;;
39308;SDS011;26019;47.510;19.122;2023-12-14T21:47:16;25.38;;;14.02;;
39308;SDS011;26019;47.510;19.122;2023-12-14T21:57:18;24.45;;;14.63;;
39308;SDS011;26019;47.510;19.122;2023-12-14T22:07:19;27.38;;;14.95;;
39308;SDS011;26019;47.510;19.122;2023-12-14T22:17:22;28.60;;;16.47;;
39308;SDS011;26019;47.510;19.122;2023-12-14T22:27:24;27.92;;;14.50;;
39308;SDS011;26019;47.510;19.122;2023-12-14T22:37:26;25.45;;;15.32;;
39308;SDS011;26019;47.510;19.122;2023-12-14T22:47:28;31.52;;;16.77;;
39308;SDS011;26019;47.510;19.122;2023-12-14T22:57:33;24.55;;;14.98;;
39308;SDS011;26019;47.510;19.122;2023-12-14T23:07:35;29.05;;;16.65;;
39308;SDS011;26019;47.510;19.122;2023-12-14T23:17:38;31.70;;;17.67;;
39308;SDS011;26019;47.510;19.122;2023-12-14T23:27:40;26.00;;;15.55;;
39308;SDS011;26019;47.510;19.122;2023-12-14T23:37:43;29.75;;;17.15;;
39308;SDS011;26019;47.510;19.122;2023-12-14T23:47:47;27.47;;;15.73;;
39308;SDS011;26019;47.510;19.122;2023-12-14T23:57:49;25.50;;;14.68;;
